Time;durP1;ratioP1;P1;durP2;ratioP2;P2;SDS_P1;SDS_P2;PMS_P1;PMS_P2;Temp;Humidity;BMP_temperature;BMP_pressure;BME280_temperature;BME280_humidity;BME280_pressure;Samples;Min_cycle;Max_cycle;Signal;HPM_P1;HPM_P2
2022/12/28 00:00:10;;;;;;;0.60;0.60;;;5.50;99.90;;;;;;5016376;28;20200;-80
2022/12/28 00:02:36;;;;;;;2.05;0.50;;;5.50;99.90;;;;;;5017030;28;20331;-80
2022/12/28 00:05:03;;;;;;;0.60;0.50;;;5.50;99.90;;;;;;5015699;28;20294;-79
2022/12/28 00:07:30;;;;;;;12.60;1.40;;;5.50;99.90;;;;;;5017177;28;20286;-81
2022/12/28 00:09:57;;;;;;;0.57;0.43;;;5.60;99.90;;;;;;5016340;28;20224;-81
2022/12/28 00:12:24;;;;;;;1.40;1.30;;;5.60;99.90;;;;;;5017064;28;20688;-81
2022/12/28 00:14:52;;;;;;;0.60;0.40;;;5.60;99.90;;;;;;5015580;28;20228;-82
2022/12/28 00:17:19;;;;;;;3.60;2.72;;;5.70;99.90;;;;;;5015248;28;20278;-83
2022/12/28 00:19:46;;;;;;;1.23;1.13;;;5.70;99.90;;;;;;5017239;28;20198;-82
2022/12/28 00:22:13;;;;;;;6.03;1.30;;;5.70;99.90;;;;;;5016404;28;20216;-81
2022/12/28 00:24:39;;;;;;;0.60;0.50;;;5.80;99.90;;;;;;5017021;28;20283;-80
2022/12/28 00:27:06;;;;;;;1.25;0.90;;;5.80;99.90;;;;;;5017647;28;20192;-81
2022/12/28 00:29:33;;;;;;;0.50;0.43;;;5.80;99.90;;;;;;5017125;28;20282;-80
2022/12/28 00:32:01;;;;;;;7.55;1.55;;;5.80;99.90;;;;;;5017231;28;20192;-81
2022/12/28 00:34:28;;;;;;;1.35;1.13;;;5.80;99.90;;;;;;5016970;28;20212;-81
2022/12/28 00:36:55;;;;;;;1.42;0.68;;;5.70;99.90;;;;;;5015885;28;20748;-81
2022/12/28 00:39:22;;;;;;;1.65;1.55;;;5.60;99.90;;;;;;5017216;28;20282;-82
2022/12/28 00:41:49;;;;;;;0.80;0.50;;;5.50;99.90;;;;;;5019967;28;20212;-81
2022/12/28 00:44:16;;;;;;;2.70;0.70;;;5.40;99.90;;;;;;5020945;28;20239;-80
2022/12/28 00:46:42;;;;;;;0.50;0.40;;;5.30;99.90;;;;;;5021861;28;20263;-79
2022/12/28 00:49:11;;;;;;;0.82;0.82;;;5.30;99.90;;;;;;5021401;28;20264;-82
2022/12/28 00:51:38;;;;;;;0.88;0.60;;;5.20;99.90;;;;;;5020974;28;20682;-80
2022/12/28 00:54:04;;;;;;;8.13;1.52;;;5.20;99.90;;;;;;5019331;28;20224;-80
2022/12/28 00:56:31;;;;;;;0.57;0.57;;;5.20;99.90;;;;;;5022072;28;20264;-83
2022/12/28 00:58:59;;;;;;;1.25;1.10;;;5.20;99.90;;;;;;5021259;28;20295;-81
2022/12/28 01:01:27;;;;;;;0.70;0.68;;;5.10;99.90;;;;;;5020324;28;20720;-81
2022/12/28 01:03:56;;;;;;;0.70;0.70;;;5.20;99.90;;;;;;5020251;28;20294;-79
2022/12/28 01:06:25;;;;;;;0.50;0.40;;;5.10;99.90;;;;;;5020750;28;20196;-80
2022/12/28 01:08:52;;;;;;;0.50;0.40;;;5.20;99.90;;;;;;5020893;28;20200;-80
2022/12/28 01:11:21;;;;;;;0.70;0.50;;;5.10;99.90;;;;;;5019560;28;20206;-80
2022/12/28 01:13:49;;;;;;;1.05;0.98;;;5.20;99.90;;;;;;5019743;28;20287;-78
2022/12/28 01:16:19;;;;;;;0.50;0.40;;;5.20;99.90;;;;;;5020107;28;20200;-79
2022/12/28 01:18:47;;;;;;;0.85;0.85;;;5.20;99.90;;;;;;5020195;28;20200;-79
2022/12/28 01:21:17;;;;;;;0.50;0.40;;;5.20;99.90;;;;;;5020147;28;20282;-79
2022/12/28 01:23:47;;;;;;;0.50;0.40;;;5.20;99.90;;;;;;5019232;28;20294;-77
2022/12/28 01:26:15;;;;;;;4.63;0.93;;;5.20;99.90;;;;;;5018893;28;20280;-81
2022/12/28 01:28:42;;;;;;;1.02;1.02;;;5.20;99.90;;;;;;5020530;28;20275;-78
2022/12/28 01:31:11;;;;;;;0.70;0.68;;;5.20;99.90;;;;;;5019453;28;20312;-81
2022/12/28 01:33:39;;;;;;;2.10;1.23;;;5.20;99.90;;;;;;5020562;28;20231;-81
2022/12/28 01:36:07;;;;;;;1.90;1.08;;;5.20;99.90;;;;;;5021799;28;20267;-79
2022/12/28 01:38:34;;;;;;;4.35;1.67;;;5.20;99.90;;;;;;5018671;28;20196;-81
2022/12/28 01:41:02;;;;;;;0.75;0.73;;;5.20;99.90;;;;;;5019647;28;20287;-82
2022/12/28 01:43:41;;;;;;;1.25;0.90;;;5.20;99.90;;;;;;5019708;28;20315;-82
2022/12/28 01:46:10;;;;;;;3.00;2.00;;;5.20;99.90;;;;;;5018568;28;20192;-83
2022/12/28 01:48:40;;;;;;;0.50;0.47;;;5.20;99.90;;;;;;5019738;28;20909;-82
2022/12/28 01:51:07;;;;;;;1.58;1.48;;;5.20;99.90;;;;;;5019908;28;20206;-80
2022/12/28 01:53:34;;;;;;;0.70;0.70;;;5.30;99.90;;;;;;5019179;28;20820;-80
2022/12/28 01:56:03;;;;;;;1.90;1.20;;;5.40;99.90;;;;;;5018843;28;20206;-80
2022/12/28 01:58:32;;;;;;;4.15;2.80;;;5.40;99.90;;;;;;5019480;28;20204;-83
2022/12/28 02:00:59;;;;;;;0.95;0.50;;;5.40;99.90;;;;;;5018601;28;20250;-79
2022/12/28 02:03:27;;;;;;;2.35;2.15;;;5.50;99.90;;;;;;5018706;28;20216;-82
2022/12/28 02:06:00;;;;;;;0.88;0.82;;;5.50;99.90;;;;;;5018065;28;20206;-81
2022/12/28 02:08:31;;;;;;;1.55;1.05;;;5.60;99.90;;;;;;5018993;28;20252;-81
2022/12/28 02:10:58;;;;;;;0.90;0.90;;;5.60;99.90;;;;;;5018265;28;20611;-75
2022/12/28 02:13:26;;;;;;;0.50;0.40;;;5.70;99.90;;;;;;5018451;28;20710;-81
2022/12/28 02:15:53;;;;;;;0.50;0.40;;;5.70;99.90;;;;;;5017853;28;20196;-81
2022/12/28 02:18:21;;;;;;;0.50;0.50;;;5.70;99.90;;;;;;5018814;28;20196;-79
2022/12/28 02:21:17;;;;;;;0.70;0.70;;;5.80;99.90;;;;;;5018732;28;20581;-80
2022/12/28 02:24:20;;;;;;;0.80;0.80;;;5.80;99.90;;;;;;5015227;28;20220;-81
2022/12/28 02:26:57;;;;;;;1.85;1.25;;;5.80;99.90;;;;;;5018568;28;20275;-79
2022/12/28 02:29:43;;;;;;;0.82;0.82;;;5.90;99.90;;;;;;5026491;28;20211;-83
2022/12/28 02:32:30;;;;;;;0.75;0.60;;;5.90;99.90;;;;;;5029874;28;20216;-85
2022/12/28 02:35:03;;;;;;;0.90;0.90;;;5.90;99.90;;;;;;5035035;28;20247;-82
2022/12/28 02:37:34;;;;;;;0.93;0.60;;;6.00;99.90;;;;;;5031736;28;20269;-80
2022/12/28 02:40:05;;;;;;;0.90;0.73;;;6.00;99.90;;;;;;5019102;28;20192;-80
2022/12/28 02:42:36;;;;;;;3.08;1.40;;;6.00;99.90;;;;;;5018750;28;20254;-80
2022/12/28 02:50:44;;;;;;;0.90;0.75;;;6.10;99.90;;;;;;5019303;28;20672;-79
2022/12/28 02:53:38;;;;;;;0.60;0.60;;;6.20;99.90;;;;;;5018412;28;20319;-79
2022/12/28 02:56:16;;;;;;;0.98;0.98;;;6.20;99.90;;;;;;5017534;28;20212;-80
2022/12/28 02:59:24;;;;;;;0.70;0.60;;;6.30;99.90;;;;;;5018850;28;20180;-80
2022/12/28 03:02:14;;;;;;;4.60;3.55;;;6.30;99.90;;;;;;5018334;28;20299;-79
2022/12/28 03:05:00;;;;;;;0.70;0.70;;;6.30;99.90;;;;;;5013323;28;20218;-78
2022/12/28 03:10:26;;;;;;;0.70;0.70;;;6.30;99.90;;;;;;5018672;28;20215;-79
2022/12/28 03:12:57;;;;;;;0.60;0.50;;;6.30;99.90;;;;;;5017531;28;20234;-80
2022/12/28 03:15:29;;;;;;;0.50;0.40;;;6.20;99.90;;;;;;5017162;28;20184;-80
2022/12/28 03:31:56;;;;;;;1.05;0.68;;;6.00;99.90;;;;;;5009929;28;20246;-83
2022/12/28 03:34:24;;;;;;;0.57;0.57;;;6.00;99.90;;;;;;5017014;28;20212;-80
2022/12/28 03:36:58;;;;;;;0.82;0.82;;;6.00;99.90;;;;;;5016175;28;20569;-79
2022/12/28 03:39:34;;;;;;;1.25;0.82;;;6.00;99.90;;;;;;5018916;28;20207;-81
2022/12/28 03:44:57;;;;;;;1.30;1.20;;;6.00;99.90;;;;;;5016598;28;20278;-80
2022/12/28 03:47:26;;;;;;;0.60;0.60;;;6.00;99.90;;;;;;5017633;28;20700;-80
2022/12/28 03:49:55;;;;;;;0.40;0.40;;;6.10;99.90;;;;;;5017783;28;20247;-82
2022/12/28 03:52:22;;;;;;;0.80;0.80;;;6.10;99.90;;;;;;5017719;28;20235;-82
2022/12/28 03:54:49;;;;;;;0.60;0.60;;;6.10;99.90;;;;;;5017357;28;20220;-81
2022/12/28 03:57:18;;;;;;;3.80;0.88;;;6.10;99.90;;;;;;5017949;28;20242;-79
2022/12/28 03:59:45;;;;;;;0.70;0.60;;;6.10;99.90;;;;;;5016851;28;20200;-80
2022/12/28 04:02:12;;;;;;;0.98;0.88;;;6.20;99.90;;;;;;5017719;28;20231;-81
2022/12/28 04:04:38;;;;;;;0.73;0.73;;;6.20;99.90;;;;;;5016212;28;20270;-80
2022/12/28 04:07:07;;;;;;;1.88;1.75;;;6.20;99.90;;;;;;5016593;28;20203;-79
2022/12/28 04:09:34;;;;;;;1.13;0.73;;;6.30;99.90;;;;;;5017702;28;20234;-79
2022/12/28 04:12:01;;;;;;;0.90;0.90;;;6.30;99.90;;;;;;5018349;28;20222;-77
2022/12/28 04:14:28;;;;;;;1.05;0.57;;;6.30;99.90;;;;;;5016720;28;20230;-80
2022/12/28 04:16:55;;;;;;;1.90;1.80;;;6.30;99.90;;;;;;5017062;28;20227;-83
2022/12/28 04:19:21;;;;;;;0.40;0.40;;;6.30;99.90;;;;;;5017591;28;20286;-79
2022/12/28 04:21:48;;;;;;;1.17;1.17;;;6.40;99.90;;;;;;5017128;28;20618;-78
2022/12/28 04:24:16;;;;;;;0.50;0.40;;;6.40;99.90;;;;;;5015883;28;20223;-81
2022/12/28 04:26:43;;;;;;;0.70;0.70;;;6.40;99.90;;;;;;5017791;28;20234;-81
2022/12/28 04:29:10;;;;;;;0.43;0.40;;;6.40;99.90;;;;;;5016943;28;20202;-81
2022/12/28 04:31:37;;;;;;;0.50;0.50;;;6.40;99.90;;;;;;5016303;28;20200;-78
2022/12/28 04:34:05;;;;;;;1.02;0.88;;;6.40;99.90;;;;;;5016815;28;20323;-81
2022/12/28 04:36:32;;;;;;;0.90;0.80;;;6.40;99.90;;;;;;5015566;28;20596;-79
2022/12/28 04:38:59;;;;;;;0.50;0.40;;;6.40;99.90;;;;;;5017345;28;20206;-80
2022/12/28 04:41:27;;;;;;;1.30;1.13;;;6.40;99.90;;;;;;5016795;28;20200;-80
2022/12/28 04:43:55;;;;;;;0.60;0.60;;;6.40;99.90;;;;;;5014665;28;20212;-81
2022/12/28 04:46:22;;;;;;;1.30;1.20;;;6.40;99.90;;;;;;5016387;28;20662;-78
2022/12/28 04:48:49;;;;;;;0.77;0.77;;;6.40;99.90;;;;;;5016341;28;20295;-82
2022/12/28 04:51:18;;;;;;;2.97;1.80;;;6.40;99.90;;;;;;5016484;28;20282;-78
2022/12/28 04:53:45;;;;;;;0.60;0.60;;;6.50;99.90;;;;;;5015567;28;20295;-78
2022/12/28 04:56:13;;;;;;;1.25;0.70;;;6.50;99.90;;;;;;5015177;28;20203;-79
2022/12/28 04:58:42;;;;;;;1.02;0.70;;;6.50;99.90;;;;;;5015668;28;20196;-78
2022/12/28 05:01:11;;;;;;;0.60;0.60;;;6.60;99.90;;;;;;5015061;28;20195;-80
2022/12/28 05:03:39;;;;;;;0.40;0.40;;;6.60;99.90;;;;;;5015926;28;20228;-81
2022/12/28 05:06:08;;;;;;;0.68;0.68;;;6.60;99.90;;;;;;5015233;28;20203;-80
2022/12/28 05:08:36;;;;;;;0.60;0.60;;;6.60;99.90;;;;;;5016112;28;20196;-79
2022/12/28 05:11:05;;;;;;;0.65;0.57;;;6.60;99.90;;;;;;5015927;28;20286;-79
2022/12/28 05:13:33;;;;;;;0.80;0.80;;;6.60;99.90;;;;;;5015649;28;20222;-82
2022/12/28 05:16:03;;;;;;;0.85;0.85;;;6.70;99.90;;;;;;5015215;28;20198;-80
2022/12/28 05:18:30;;;;;;;0.47;0.40;;;6.70;99.90;;;;;;5015641;28;20286;-79
2022/12/28 05:21:03;;;;;;;0.90;0.90;;;6.70;99.90;;;;;;5015296;28;20219;-79
2022/12/28 05:23:31;;;;;;;1.60;0.93;;;6.80;99.90;;;;;;5015872;28;20220;-80
2022/12/28 05:25:58;;;;;;;0.70;0.70;;;6.80;99.90;;;;;;5015720;28;20283;-79
2022/12/28 05:28:26;;;;;;;0.98;0.90;;;6.90;99.90;;;;;;5019081;28;20291;-81
2022/12/28 05:30:58;;;;;;;0.88;0.55;;;6.90;99.90;;;;;;5019154;28;20291;-81
2022/12/28 05:33:26;;;;;;;1.52;1.00;;;7.00;99.90;;;;;;5020418;28;20216;-77
2022/12/28 05:35:53;;;;;;;4.22;1.15;;;7.00;99.90;;;;;;5018701;28;20200;-78
2022/12/28 05:38:20;;;;;;;0.80;0.80;;;7.10;99.90;;;;;;5017844;28;20292;-81
2022/12/28 05:40:47;;;;;;;0.90;0.90;;;7.10;99.90;;;;;;5020127;28;20284;-79
2022/12/28 05:43:13;;;;;;;0.88;0.88;;;7.20;99.90;;;;;;5018714;28;20292;-80
2022/12/28 05:45:40;;;;;;;1.67;0.82;;;7.20;99.90;;;;;;5016996;28;20192;-82
2022/12/28 05:48:07;;;;;;;0.93;0.70;;;7.30;99.90;;;;;;5018186;28;20219;-77
2022/12/28 05:50:35;;;;;;;3.70;0.70;;;7.30;99.90;;;;;;5018734;28;20200;-79
2022/12/28 05:53:02;;;;;;;2.63;1.27;;;7.40;99.90;;;;;;5017914;28;20569;-79
2022/12/28 05:55:29;;;;;;;0.80;0.80;;;7.40;99.90;;;;;;5017780;28;20868;-81
2022/12/28 05:57:56;;;;;;;1.00;0.60;;;7.40;99.90;;;;;;5018560;28;20192;-76
2022/12/28 06:00:23;;;;;;;1.25;1.15;;;7.40;99.90;;;;;;5018316;28;20195;-78
2022/12/28 06:02:49;;;;;;;1.05;1.00;;;7.40;99.90;;;;;;5018976;28;20624;-78
2022/12/28 06:05:16;;;;;;;1.27;1.17;;;7.40;99.90;;;;;;5017106;28;20295;-79
2022/12/28 06:07:44;;;;;;;0.60;0.60;;;7.40;99.90;;;;;;5018658;28;20291;-78
2022/12/28 06:10:12;;;;;;;2.75;1.15;;;7.40;99.90;;;;;;5018411;28;20235;-79
2022/12/28 06:12:38;;;;;;;0.65;0.65;;;7.40;99.90;;;;;;5016676;28;20223;-81
2022/12/28 06:15:06;;;;;;;2.50;1.42;;;7.30;99.90;;;;;;5017220;28;20243;-79
2022/12/28 06:17:33;;;;;;;1.25;1.13;;;7.30;99.90;;;;;;5018733;28;20622;-79
2022/12/28 06:20:00;;;;;;;1.70;1.60;;;7.30;99.90;;;;;;5019001;28;20191;-79
2022/12/28 06:22:27;;;;;;;0.73;0.73;;;7.30;99.90;;;;;;5019123;28;20192;-80
2022/12/28 06:24:55;;;;;;;0.80;0.60;;;7.30;99.90;;;;;;5018313;28;20306;-79
2022/12/28 06:27:22;;;;;;;1.45;0.73;;;7.40;99.90;;;;;;5019703;28;20192;-78
2022/12/28 06:29:49;;;;;;;1.23;1.20;;;7.40;99.90;;;;;;5018709;28;20282;-81
2022/12/28 06:32:16;;;;;;;0.70;0.70;;;7.30;99.90;;;;;;5018808;28;20192;-78
2022/12/28 06:34:43;;;;;;;3.15;1.48;;;7.40;99.90;;;;;;5017458;28;20298;-78
2022/12/28 06:37:09;;;;;;;2.10;1.60;;;7.40;99.90;;;;;;5017461;28;20287;-80
2022/12/28 06:39:36;;;;;;;0.68;0.60;;;7.40;99.90;;;;;;5018267;28;20222;-79
2022/12/28 06:42:04;;;;;;;2.22;1.02;;;7.40;99.90;;;;;;5019080;28;20239;-77
2022/12/28 06:44:31;;;;;;;0.73;0.70;;;7.40;99.90;;;;;;5017487;28;20216;-82
2022/12/28 06:46:58;;;;;;;1.17;1.10;;;7.40;99.90;;;;;;5018606;28;20239;-82
2022/12/28 06:49:25;;;;;;;3.90;1.20;;;7.40;99.90;;;;;;5018361;28;20259;-80
2022/12/28 06:51:52;;;;;;;0.98;0.88;;;7.40;99.90;;;;;;5017953;28;20626;-80
2022/12/28 06:54:18;;;;;;;24.02;1.02;;;7.40;99.90;;;;;;5017658;28;20280;-83
2022/12/28 06:56:45;;;;;;;3.92;1.50;;;7.40;99.90;;;;;;5017799;28;20630;-80
2022/12/28 06:59:13;;;;;;;1.35;1.15;;;7.40;99.90;;;;;;5018686;28;20255;-80
2022/12/28 07:01:43;;;;;;;0.80;0.60;;;7.40;99.90;;;;;;5018293;28;20268;-79
2022/12/28 07:04:10;;;;;;;0.68;0.68;;;7.40;99.90;;;;;;5016631;28;20701;-82
2022/12/28 07:06:39;;;;;;;2.70;0.73;;;7.40;99.90;;;;;;5018051;28;20286;-80
2022/12/28 07:09:09;;;;;;;3.10;1.15;;;7.40;99.90;;;;;;5017120;28;20212;-80
2022/12/28 07:11:36;;;;;;;1.90;1.00;;;7.40;99.90;;;;;;5017028;28;20274;-83
2022/12/28 07:14:03;;;;;;;1.83;1.20;;;7.50;99.90;;;;;;5016165;28;20259;-80
2022/12/28 07:16:31;;;;;;;1.30;1.08;;;7.50;99.90;;;;;;5016732;28;20279;-80
2022/12/28 07:18:59;;;;;;;1.88;1.55;;;7.50;99.90;;;;;;5016685;28;20236;-77
2022/12/28 07:21:29;;;;;;;0.93;0.75;;;7.50;99.90;;;;;;5016437;28;20268;-84
2022/12/28 07:23:57;;;;;;;0.50;0.50;;;7.50;99.90;;;;;;5015930;28;20247;-80
2022/12/28 07:26:26;;;;;;;2.47;1.50;;;7.50;99.90;;;;;;5015287;28;20196;-79
2022/12/28 07:28:54;;;;;;;0.73;0.73;;;7.50;99.90;;;;;;5016211;28;20196;-80
2022/12/28 07:31:23;;;;;;;2.10;1.90;;;7.50;99.90;;;;;;5015471;28;20626;-81
2022/12/28 07:33:54;;;;;;;0.77;0.77;;;7.50;99.90;;;;;;5015239;28;20212;-77
2022/12/28 07:36:22;;;;;;;0.70;0.65;;;7.50;99.90;;;;;;5014242;28;20184;-80
2022/12/28 07:38:49;;;;;;;1.00;1.00;;;7.50;99.90;;;;;;5015892;28;20206;-78
2022/12/28 07:41:19;;;;;;;1.40;1.02;;;7.50;99.90;;;;;;5015503;28;20196;-81
2022/12/28 07:43:46;;;;;;;4.22;1.63;;;7.60;99.90;;;;;;5015227;28;20311;-80
2022/12/28 07:46:15;;;;;;;1.15;1.05;;;7.60;99.90;;;;;;5014665;28;20204;-79
2022/12/28 07:48:43;;;;;;;1.42;1.27;;;7.60;99.90;;;;;;5015399;28;20203;-80
2022/12/28 07:51:14;;;;;;;2.00;0.80;;;7.60;99.90;;;;;;5015428;28;20231;-78
2022/12/28 07:53:42;;;;;;;1.52;1.15;;;7.60;99.90;;;;;;5015229;28;20327;-79
2022/12/28 07:56:09;;;;;;;0.80;0.50;;;7.60;99.90;;;;;;5014072;28;20200;-80
2022/12/28 07:58:36;;;;;;;0.73;0.65;;;7.60;99.90;;;;;;5015743;28;20264;-80
2022/12/28 08:01:04;;;;;;;0.60;0.60;;;7.70;99.90;;;;;;5015018;28;20231;-81
2022/12/28 08:03:31;;;;;;;0.60;0.60;;;7.70;99.90;;;;;;5014079;28;20254;-78
2022/12/28 08:06:04;;;;;;;1.33;0.68;;;7.70;99.90;;;;;;5014066;28;20196;-80
2022/12/28 08:08:35;;;;;;;1.25;1.15;;;7.70;99.90;;;;;;5018272;28;20248;-79
2022/12/28 08:11:04;;;;;;;1.70;1.50;;;7.70;99.90;;;;;;5015195;28;20279;-77
2022/12/28 08:13:32;;;;;;;1.92;1.10;;;7.70;99.90;;;;;;5015462;28;20705;-79
2022/12/28 08:15:59;;;;;;;3.60;2.22;;;7.70;99.90;;;;;;5014255;28;20292;-79
2022/12/28 08:18:26;;;;;;;1.92;1.63;;;7.70;99.90;;;;;;5014844;28;20287;-79
2022/12/28 08:20:53;;;;;;;1.15;0.60;;;7.80;99.90;;;;;;5015462;28;20202;-81
2022/12/28 08:23:20;;;;;;;1.02;0.90;;;7.80;99.90;;;;;;5016220;28;20243;-80
2022/12/28 08:25:48;;;;;;;4.10;1.02;;;7.80;99.90;;;;;;5015019;28;20279;-81
2022/12/28 08:28:15;;;;;;;5.35;1.05;;;7.80;99.90;;;;;;5015391;28;20196;-80
2022/12/28 08:30:41;;;;;;;2.83;0.95;;;7.90;99.90;;;;;;5015105;28;20210;-80
2022/12/28 08:33:08;;;;;;;0.40;0.40;;;7.90;99.90;;;;;;5015930;28;20629;-80
2022/12/28 08:35:35;;;;;;;0.60;0.43;;;8.00;99.90;;;;;;5014263;28;20219;-81
2022/12/28 08:38:02;;;;;;;1.90;1.50;;;8.00;99.90;;;;;;5013831;28;20279;-80
2022/12/28 08:40:29;;;;;;;0.60;0.50;;;8.00;99.90;;;;;;5014761;28;20295;-79
2022/12/28 08:42:58;;;;;;;1.63;0.70;;;8.10;99.90;;;;;;5015655;28;20259;-81
2022/12/28 08:45:25;;;;;;;1.33;0.73;;;8.10;99.90;;;;;;5014990;28;20597;-79
2022/12/28 08:47:53;;;;;;;0.73;0.70;;;8.20;99.90;;;;;;5018043;28;20662;-80
2022/12/28 08:50:20;;;;;;;0.75;0.57;;;8.20;99.90;;;;;;5016766;28;20577;-79
2022/12/28 08:52:46;;;;;;;0.50;0.47;;;8.20;99.90;;;;;;5016248;28;20287;-81
2022/12/28 08:55:13;;;;;;;0.60;0.55;;;8.30;99.90;;;;;;5030415;28;20594;-80
2022/12/28 08:57:40;;;;;;;0.80;0.60;;;8.30;99.90;;;;;;5034955;28;20327;-85
2022/12/28 09:00:10;;;;;;;0.50;0.40;;;8.30;99.90;;;;;;5035684;28;20196;-84
2022/12/28 09:02:37;;;;;;;2.88;0.70;;;8.40;99.90;;;;;;5035869;28;20240;-81
2022/12/28 09:05:04;;;;;;;0.50;0.50;;;8.40;99.90;;;;;;5036906;28;20207;-81
2022/12/28 09:07:31;;;;;;;0.90;0.90;;;8.40;99.90;;;;;;5038859;28;20184;-83
2022/12/28 09:09:58;;;;;;;1.02;0.93;;;8.50;99.90;;;;;;5039234;28;20617;-83
2022/12/28 09:12:24;;;;;;;0.50;0.40;;;8.50;99.90;;;;;;5037838;28;20188;-79
2022/12/28 09:14:51;;;;;;;0.50;0.50;;;8.60;99.90;;;;;;5038340;28;20351;-80
2022/12/28 09:17:20;;;;;;;2.20;1.05;;;8.60;99.90;;;;;;5038737;28;20176;-84
2022/12/28 09:19:46;;;;;;;0.65;0.65;;;8.60;99.90;;;;;;5029331;28;20278;-81
2022/12/28 09:24:59;;;;;;;0.60;0.55;;;8.70;99.90;;;;;;4992217;28;20304;-78
2022/12/28 09:27:26;;;;;;;0.50;0.40;;;8.70;99.90;;;;;;4990216;28;20511;-78
2022/12/28 09:29:53;;;;;;;0.63;0.43;;;8.80;99.90;;;;;;5005955;28;20201;-81
2022/12/28 09:32:21;;;;;;;1.23;0.50;;;8.80;99.90;;;;;;4998683;28;20201;-79
2022/12/28 09:34:48;;;;;;;1.20;0.95;;;8.80;99.90;;;;;;4984288;28;20200;-79
2022/12/28 09:37:15;;;;;;;0.60;0.50;;;8.90;99.90;;;;;;4985567;28;20217;-79
2022/12/28 09:39:42;;;;;;;0.50;0.40;;;8.90;99.90;;;;;;4985221;28;20261;-80
2022/12/28 09:42:15;;;;;;;0.75;0.68;;;8.90;99.90;;;;;;4986898;28;20198;-79
2022/12/28 09:44:49;;;;;;;1.30;1.02;;;8.90;99.90;;;;;;4984710;28;20213;-79
2022/12/28 09:47:23;;;;;;;0.80;0.80;;;8.90;99.90;;;;;;4986302;28;20251;-79
2022/12/28 09:50:03;;;;;;;0.50;0.50;;;9.00;99.90;;;;;;4984717;28;20263;-79
2022/12/28 09:52:33;;;;;;;1.45;1.00;;;9.00;99.90;;;;;;4981347;28;20181;-77
2022/12/28 09:55:07;;;;;;;0.50;0.40;;;9.00;99.90;;;;;;4982457;28;20193;-78
2022/12/28 09:57:37;;;;;;;0.50;0.40;;;9.10;99.90;;;;;;4986345;28;20197;-77
2022/12/28 10:00:08;;;;;;;0.60;0.45;;;9.10;99.90;;;;;;4988207;28;20209;-80
2022/12/28 10:02:38;;;;;;;0.65;0.65;;;9.10;99.90;;;;;;4983395;28;20236;-77
2022/12/28 10:05:06;;;;;;;0.60;0.40;;;9.10;99.90;;;;;;4984867;28;20197;-78
2022/12/28 10:07:36;;;;;;;0.50;0.40;;;9.20;99.90;;;;;;4985247;28;20197;-77
2022/12/28 10:10:04;;;;;;;0.50;0.40;;;9.20;99.90;;;;;;4986740;28;20224;-78
2022/12/28 10:12:31;;;;;;;0.93;0.68;;;9.20;99.90;;;;;;4986598;28;20203;-77
2022/12/28 10:14:59;;;;;;;0.60;0.50;;;9.20;99.90;;;;;;4994698;28;20706;-78
2022/12/28 10:17:29;;;;;;;2.72;0.60;;;9.30;99.90;;;;;;5005147;28;20192;-79
2022/12/28 10:19:59;;;;;;;0.50;0.50;;;9.30;99.90;;;;;;5007034;28;20197;-79
2022/12/28 10:22:31;;;;;;;0.80;0.80;;;9.40;99.90;;;;;;5005528;28;20197;-78
2022/12/28 10:24:58;;;;;;;0.50;0.45;;;9.40;99.90;;;;;;5006041;28;20216;-78
2022/12/28 10:27:29;;;;;;;1.20;0.90;;;9.40;99.90;;;;;;5006540;28;20203;-78
2022/12/28 10:29:56;;;;;;;0.80;0.60;;;9.40;99.90;;;;;;5005511;28;20197;-77
2022/12/28 10:32:23;;;;;;;0.93;0.63;;;9.40;99.90;;;;;;5005441;28;20627;-78
2022/12/28 10:34:58;;;;;;;1.47;1.27;;;9.40;99.90;;;;;;5004419;28;20486;-79
2022/12/28 10:37:29;;;;;;;0.60;0.50;;;9.40;99.90;;;;;;5005259;28;20482;-78
2022/12/28 10:39:59;;;;;;;1.85;0.98;;;9.50;99.90;;;;;;5004748;28;20216;-78
2022/12/28 10:42:30;;;;;;;0.60;0.50;;;9.50;99.90;;;;;;4998398;28;20287;-77
2022/12/28 10:45:03;;;;;;;0.50;0.30;;;9.50;99.90;;;;;;4997116;28;20236;-78
2022/12/28 10:47:34;;;;;;;0.60;0.43;;;9.50;99.90;;;;;;4997434;28;20557;-77
2022/12/28 10:50:03;;;;;;;2.35;1.63;;;9.50;99.90;;;;;;4996700;28;20268;-77
2022/12/28 10:52:30;;;;;;;0.90;0.70;;;9.60;99.90;;;;;;4995723;28;20196;-77
2022/12/28 10:54:57;;;;;;;2.65;0.90;;;9.50;99.90;;;;;;4995097;28;20203;-78
2022/12/28 10:57:29;;;;;;;0.63;0.63;;;9.60;99.90;;;;;;4996631;28;20288;-78
2022/12/28 11:00:15;;;;;;;0.57;0.47;;;9.60;99.90;;;;;;4996353;28;20769;-77
2022/12/28 11:02:42;;;;;;;0.60;0.50;;;9.70;99.90;;;;;;4995566;28;20607;-77
2022/12/28 11:05:19;;;;;;;2.08;0.80;;;9.70;99.90;;;;;;4994719;28;20212;-77
2022/12/28 11:07:46;;;;;;;0.60;0.50;;;9.70;99.90;;;;;;4995585;28;20634;-77
2022/12/28 11:10:28;;;;;;;0.70;0.60;;;9.70;99.90;;;;;;4995969;28;20287;-77
2022/12/28 11:12:56;;;;;;;0.70;0.70;;;9.80;99.90;;;;;;4994638;28;20236;-77
2022/12/28 11:15:24;;;;;;;0.60;0.50;;;9.80;99.90;;;;;;4994948;28;20279;-78
2022/12/28 11:17:55;;;;;;;1.60;0.50;;;9.80;99.90;;;;;;4996125;28;20193;-77
2022/12/28 11:20:27;;;;;;;1.08;0.60;;;9.90;99.90;;;;;;4995270;28;20197;-77
2022/12/28 11:22:54;;;;;;;0.60;0.55;;;9.90;99.90;;;;;;4995393;28;20228;-78
2022/12/28 11:25:30;;;;;;;0.60;0.60;;;9.90;99.90;;;;;;4994592;28;20559;-77
2022/12/28 11:27:57;;;;;;;0.80;0.70;;;9.90;99.90;;;;;;4995968;28;20204;-78
2022/12/28 11:30:24;;;;;;;0.70;0.70;;;9.90;99.90;;;;;;4994632;28;20196;-77
2022/12/28 11:32:54;;;;;;;0.50;0.40;;;9.90;99.90;;;;;;4995463;28;20220;-77
2022/12/28 11:35:26;;;;;;;0.95;0.70;;;9.90;99.90;;;;;;4997306;28;20193;-77
2022/12/28 11:37:55;;;;;;;0.75;0.47;;;9.90;99.90;;;;;;4993945;28;20181;-77
2022/12/28 11:40:49;;;;;;;1.02;0.93;;;10.00;99.90;;;;;;4993178;28;20200;-76
2022/12/28 11:43:39;;;;;;;0.50;0.47;;;10.00;99.90;;;;;;4993460;28;20216;-76
2022/12/28 11:46:27;;;;;;;1.15;1.10;;;10.00;99.90;;;;;;4993374;28;20223;-77
2022/12/28 11:48:58;;;;;;;0.60;0.50;;;10.00;99.90;;;;;;4995648;28;20206;-76
2022/12/28 11:51:28;;;;;;;0.60;0.50;;;10.00;99.90;;;;;;4994241;28;20195;-78
2022/12/28 11:53:57;;;;;;;0.50;0.50;;;9.90;99.90;;;;;;4991279;28;20220;-77
2022/12/28 11:56:26;;;;;;;0.73;0.65;;;10.00;99.90;;;;;;4993454;28;20196;-77
2022/12/28 11:59:21;;;;;;;0.60;0.50;;;10.00;99.90;;;;;;4993021;28;20200;-77
2022/12/28 12:01:58;;;;;;;0.50;0.40;;;10.00;99.90;;;;;;4987339;28;20251;-77
2022/12/28 12:04:45;;;;;;;0.80;0.60;;;9.90;99.90;;;;;;4991727;28;20447;-78
2022/12/28 12:07:25;;;;;;;0.60;0.50;;;10.00;99.90;;;;;;4993874;28;20251;-77
2022/12/28 12:10:30;;;;;;;0.70;0.60;;;10.00;99.90;;;;;;4993116;28;20207;-77
2022/12/28 12:12:57;;;;;;;0.98;0.85;;;10.00;99.90;;;;;;4993785;28;20235;-77
2022/12/28 12:15:39;;;;;;;1.05;0.52;;;10.00;99.90;;;;;;4992422;28;20200;-77
2022/12/28 12:18:13;;;;;;;0.70;0.60;;;10.00;99.90;;;;;;4992784;28;20686;-77
2022/12/28 12:20:48;;;;;;;0.75;0.75;;;10.00;99.90;;;;;;4992666;28;20558;-77
2022/12/28 12:23:31;;;;;;;2.65;0.50;;;10.00;99.90;;;;;;4992573;28;20232;-77
2022/12/28 12:26:01;;;;;;;1.35;1.25;;;10.00;99.90;;;;;;4992486;28;20580;-77
2022/12/28 12:28:36;;;;;;;1.98;1.30;;;10.00;99.90;;;;;;4992925;28;20299;-77
2022/12/28 12:31:08;;;;;;;1.70;0.93;;;10.10;99.90;;;;;;4992071;28;20192;-77
2022/12/28 12:33:36;;;;;;;0.50;0.40;;;10.00;99.90;;;;;;4992737;28;20307;-77
2022/12/28 12:36:19;;;;;;;3.10;2.17;;;10.00;99.90;;;;;;4992649;28;20189;-77
2022/12/28 12:39:19;;;;;;;0.97;0.60;;;10.00;99.90;;;;;;4997362;28;20199;-77
2022/12/28 12:41:57;;;;;;;1.13;0.60;;;9.80;99.90;;;;;;4997521;28;20446;-77
2022/12/28 12:44:33;;;;;;;0.60;0.60;;;9.70;99.90;;;;;;4996297;28;20220;-77
2022/12/28 12:47:28;;;;;;;2.67;1.40;;;9.60;99.90;;;;;;4997128;28;20211;-77
2022/12/28 12:50:21;;;;;;;0.50;0.40;;;9.50;99.90;;;;;;4997461;28;20800;-77
2022/12/28 12:53:00;;;;;;;3.83;1.40;;;9.40;99.90;;;;;;4996732;28;20299;-77
2022/12/28 12:55:42;;;;;;;1.05;1.05;;;9.30;99.90;;;;;;4996897;28;20192;-77
2022/12/28 12:58:19;;;;;;;0.50;0.40;;;9.30;99.90;;;;;;4997988;28;20280;-77
2022/12/28 13:01:17;;;;;;;0.63;0.60;;;9.20;99.90;;;;;;4997210;28;20219;-77
2022/12/28 13:03:46;;;;;;;0.50;0.50;;;9.20;99.90;;;;;;4982400;28;20283;-77
2022/12/28 13:06:15;;;;;;;0.50;0.50;;;9.20;99.90;;;;;;4997162;28;20224;-77
2022/12/28 13:08:48;;;;;;;0.50;0.40;;;9.10;99.90;;;;;;4997388;28;20548;-77
2022/12/28 13:11:18;;;;;;;0.50;0.40;;;9.10;99.90;;;;;;4998665;28;20646;-78
2022/12/28 13:13:47;;;;;;;0.50;0.40;;;9.10;99.90;;;;;;4998747;28;20312;-77
2022/12/28 13:16:17;;;;;;;1.83;1.10;;;9.00;99.90;;;;;;4997604;28;20207;-77
2022/12/28 13:18:54;;;;;;;0.50;0.40;;;9.00;99.90;;;;;;4997126;28;20673;-77
2022/12/28 13:21:22;;;;;;;1.50;0.47;;;9.00;99.90;;;;;;4996220;28;20287;-77
2022/12/28 13:23:50;;;;;;;1.75;1.65;;;8.90;99.90;;;;;;4995914;28;20278;-77
2022/12/28 13:26:24;;;;;;;0.50;0.40;;;8.90;99.90;;;;;;4995763;28;20300;-78
2022/12/28 13:28:56;;;;;;;1.95;0.85;;;8.90;99.90;;;;;;4996317;28;20193;-77
2022/12/28 13:31:28;;;;;;;0.50;0.40;;;8.90;99.90;;;;;;4996162;28;20191;-77
2022/12/28 13:33:57;;;;;;;1.38;1.27;;;8.90;99.90;;;;;;4994868;28;20227;-76
2022/12/28 13:36:24;;;;;;;0.50;0.40;;;8.90;99.90;;;;;;4995789;28;20199;-77
2022/12/28 13:39:03;;;;;;;0.98;0.98;;;8.90;99.90;;;;;;4995336;28;20607;-76